sensor_id;sensor_type;location;lat;lon;timestamp;temperature;humidity
40996;DHT22;26723;57.478;12.066;2023-04-06T00:01:07;1.00;99.90
40996;DHT22;26723;57.478;12.066;2023-04-06T00:04:17;1.10;99.90
40996;DHT22;26723;57.478;12.066;2023-04-06T00:07:27;1.10;99.90
40996;DHT22;26723;57.478;12.066;2023-04-06T00:10:36;1.00;99.90
40996;DHT22;26723;57.478;12.066;2023-04-06T00:13:45;1.10;99.90
40996;DHT22;26723;57.478;12.066;2023-04-06T00:16:53;1.00;99.90
40996;DHT22;26723;57.478;12.066;2023-04-06T00:20:04;0.90;99.90
40996;DHT22;26723;57.478;12.066;2023-04-06T00:23:13;0.90;99.90
40996;DHT22;26723;57.478;12.066;2023-04-06T00:26:22;0.80;99.90
40996;DHT22;26723;57.478;12.066;2023-04-06T00:29:30;0.80;99.90
40996;DHT22;26723;57.478;12.066;2023-04-06T00:32:39;0.70;99.90
40996;DHT22;26723;57.478;12.066;2023-04-06T00:35:49;0.70;99.90
40996;DHT22;26723;57.478;12.066;2023-04-06T00:38:58;0.80;99.90
40996;DHT22;26723;57.478;12.066;2023-04-06T00:42:11;0.60;99.90
40996;DHT22;26723;57.478;12.066;2023-04-06T00:45:20;0.60;99.90
40996;DHT22;26723;57.478;12.066;2023-04-06T00:48:29;0.60;99.90
40996;DHT22;26723;57.478;12.066;2023-04-06T00:51:40;0.60;99.90
40996;DHT22;26723;57.478;12.066;2023-04-06T00:54:49;0.60;99.90
40996;DHT22;26723;57.478;12.066;2023-04-06T00:57:59;0.60;99.90
40996;DHT22;26723;57.478;12.066;2023-04-06T01:01:13;0.60;99.90
40996;DHT22;26723;57.478;12.066;2023-04-06T01:04:22;0.60;99.90
40996;DHT22;26723;57.478;12.066;2023-04-06T01:07:33;0.50;99.90
40996;DHT22;26723;57.478;12.066;2023-04-06T01:10:49;0.40;99.90
40996;DHT22;26723;57.478;12.066;2023-04-06T01:14:07;0.40;99.90
40996;DHT22;26723;57.478;12.066;2023-04-06T01:17:30;0.40;99.90
40996;DHT22;26723;57.478;12.066;2023-04-06T01:20:45;0.30;99.90
40996;DHT22;26723;57.478;12.066;2023-04-06T01:23:57;0.30;99.90
40996;DHT22;26723;57.478;12.066;2023-04-06T01:27:13;0.20;99.90
40996;DHT22;26723;57.478;12.066;2023-04-06T01:30:41;0.20;99.90
40996;DHT22;26723;57.478;12.066;2023-04-06T01:34:01;0.20;99.90
40996;DHT22;26723;57.478;12.066;2023-04-06T01:37:10;0.20;99.90
40996;DHT22;26723;57.478;12.066;2023-04-06T01:40:20;0.10;99.90
40996;DHT22;26723;57.478;12.066;2023-04-06T01:43:31;0.20;99.90
40996;DHT22;26723;57.478;12.066;2023-04-06T01:46:43;0.10;99.90
40996;DHT22;26723;57.478;12.066;2023-04-06T01:49:56;0.10;99.90
40996;DHT22;26723;57.478;12.066;2023-04-06T01:53:05;0.10;99.90
40996;DHT22;26723;57.478;12.066;2023-04-06T01:56:15;0.00;99.90
40996;DHT22;26723;57.478;12.066;2023-04-06T01:59:33;0.00;99.90
40996;DHT22;26723;57.478;12.066;2023-04-06T02:02:47;-0.10;99.90
40996;DHT22;26723;57.478;12.066;2023-04-06T02:06:02;0.00;99.90
40996;DHT22;26723;57.478;12.066;2023-04-06T02:09:16;-0.10;99.90
40996;DHT22;26723;57.478;12.066;2023-04-06T02:12:26;-0.10;99.90
40996;DHT22;26723;57.478;12.066;2023-04-06T02:15:34;-0.10;99.90
40996;DHT22;26723;57.478;12.066;2023-04-06T02:18:43;-0.10;99.90
40996;DHT22;26723;57.478;12.066;2023-04-06T02:21:51;-0.10;99.90
40996;DHT22;26723;57.478;12.066;2023-04-06T02:25:00;-0.10;99.90
40996;DHT22;26723;57.478;12.066;2023-04-06T02:28:10;-0.20;99.90
40996;DHT22;26723;57.478;12.066;2023-04-06T02:31:18;-0.20;99.90
40996;DHT22;26723;57.478;12.066;2023-04-06T02:34:28;-0.20;99.90
40996;DHT22;26723;57.478;12.066;2023-04-06T02:37:36;-0.20;99.90
40996;DHT22;26723;57.478;12.066;2023-04-06T02:40:45;-0.30;99.90
40996;DHT22;26723;57.478;12.066;2023-04-06T02:44:02;-0.20;99.90
40996;DHT22;26723;57.478;12.066;2023-04-06T02:47:17;-0.30;99.90
40996;DHT22;26723;57.478;12.066;2023-04-06T02:50:29;-0.20;99.90
40996;DHT22;26723;57.478;12.066;2023-04-06T02:53:41;-0.20;99.90
40996;DHT22;26723;57.478;12.066;2023-04-06T02:56:51;-0.20;99.90
40996;DHT22;26723;57.478;12.066;2023-04-06T03:00:02;-0.30;99.90
40996;DHT22;26723;57.478;12.066;2023-04-06T03:03:17;-0.20;99.90
40996;DHT22;26723;57.478;12.066;2023-04-06T03:06:26;-0.10;99.90
40996;DHT22;26723;57.478;12.066;2023-04-06T03:09:41;-0.20;99.90
40996;DHT22;26723;57.478;12.066;2023-04-06T03:12:49;-0.20;99.90
40996;DHT22;26723;57.478;12.066;2023-04-06T03:16:05;-0.20;99.90
40996;DHT22;26723;57.478;12.066;2023-04-06T03:19:14;-0.10;99.90
40996;DHT22;26723;57.478;12.066;2023-04-06T03:22:23;-0.10;99.90
40996;DHT22;26723;57.478;12.066;2023-04-06T03:25:31;-0.10;99.90
40996;DHT22;26723;57.478;12.066;2023-04-06T03:28:43;-0.10;99.90
40996;DHT22;26723;57.478;12.066;2023-04-06T03:31:54;0.00;99.90
40996;DHT22;26723;57.478;12.066;2023-04-06T03:35:10;0.00;99.90
40996;DHT22;26723;57.478;12.066;2023-04-06T03:38:19;0.00;99.90
40996;DHT22;26723;57.478;12.066;2023-04-06T03:41:27;0.00;99.90
40996;DHT22;26723;57.478;12.066;2023-04-06T03:45:02;-0.10;99.90
40996;DHT22;26723;57.478;12.066;2023-04-06T03:48:13;0.00;99.90
40996;DHT22;26723;57.478;12.066;2023-04-06T03:51:22;0.00;99.90
40996;DHT22;26723;57.478;12.066;2023-04-06T03:54:30;-0.10;99.90
40996;DHT22;26723;57.478;12.066;2023-04-06T03:57:39;0.00;99.90
40996;DHT22;26723;57.478;12.066;2023-04-06T04:00:47;0.00;99.90
40996;DHT22;26723;57.478;12.066;2023-04-06T04:03:57;0.00;99.90
40996;DHT22;26723;57.478;12.066;2023-04-06T04:07:06;0.00;99.90
40996;DHT22;26723;57.478;12.066;2023-04-06T04:10:14;0.10;99.90
40996;DHT22;26723;57.478;12.066;2023-04-06T04:13:23;0.00;99.90
40996;DHT22;26723;57.478;12.066;2023-04-06T04:16:31;0.00;99.90
40996;DHT22;26723;57.478;12.066;2023-04-06T04:19:41;0.00;99.90
40996;DHT22;26723;57.478;12.066;2023-04-06T04:22:50;0.00;99.90
40996;DHT22;26723;57.478;12.066;2023-04-06T04:25:58;0.10;99.90
40996;DHT22;26723;57.478;12.066;2023-04-06T04:29:07;0.10;99.90
40996;DHT22;26723;57.478;12.066;2023-04-06T04:32:17;0.10;99.90
40996;DHT22;26723;57.478;12.066;2023-04-06T04:35:28;0.00;99.90
40996;DHT22;26723;57.478;12.066;2023-04-06T04:38:37;0.10;99.90
40996;DHT22;26723;57.478;12.066;2023-04-06T04:41:45;0.10;99.90
40996;DHT22;26723;57.478;12.066;2023-04-06T04:44:54;0.20;99.90
40996;DHT22;26723;57.478;12.066;2023-04-06T04:48:15;0.10;99.90
40996;DHT22;26723;57.478;12.066;2023-04-06T04:51:33;0.20;99.90
40996;DHT22;26723;57.478;12.066;2023-04-06T04:54:49;0.20;99.90
40996;DHT22;26723;57.478;12.066;2023-04-06T04:58:03;0.20;99.90
40996;DHT22;26723;57.478;12.066;2023-04-06T05:01:26;0.20;99.90
40996;DHT22;26723;57.478;12.066;2023-04-06T05:04:37;0.30;99.90
40996;DHT22;26723;57.478;12.066;2023-04-06T05:07:49;0.30;99.90
40996;DHT22;26723;57.478;12.066;2023-04-06T05:11:17;0.40;99.90
40996;DHT22;26723;57.478;12.066;2023-04-06T05:14:33;0.40;99.90
40996;DHT22;26723;57.478;12.066;2023-04-06T05:17:45;0.40;99.90
40996;DHT22;26723;57.478;12.066;2023-04-06T05:20:59;0.40;99.90
40996;DHT22;26723;57.478;12.066;2023-04-06T05:24:24;0.50;99.90
40996;DHT22;26723;57.478;12.066;2023-04-06T05:27:33;0.50;99.90
40996;DHT22;26723;57.478;12.066;2023-04-06T05:30:47;0.40;99.90
40996;DHT22;26723;57.478;12.066;2023-04-06T05:33:56;0.50;99.90
40996;DHT22;26723;57.478;12.066;2023-04-06T05:37:14;0.50;99.90
40996;DHT22;26723;57.478;12.066;2023-04-06T05:40:24;0.60;99.90
40996;DHT22;26723;57.478;12.066;2023-04-06T05:43:33;0.60;99.90
40996;DHT22;26723;57.478;12.066;2023-04-06T05:46:42;0.60;99.90
40996;DHT22;26723;57.478;12.066;2023-04-06T05:49:54;0.60;99.90
40996;DHT22;26723;57.478;12.066;2023-04-06T05:53:11;0.70;99.90
40996;DHT22;26723;57.478;12.066;2023-04-06T05:56:25;0.70;99.90
40996;DHT22;26723;57.478;12.066;2023-04-06T05:59:34;0.70;99.90
40996;DHT22;26723;57.478;12.066;2023-04-06T06:02:42;0.80;99.90
40996;DHT22;26723;57.478;12.066;2023-04-06T06:06:00;0.80;99.90
40996;DHT22;26723;57.478;12.066;2023-04-06T06:09:21;0.80;99.90
40996;DHT22;26723;57.478;12.066;2023-04-06T06:12:41;0.80;99.90
40996;DHT22;26723;57.478;12.066;2023-04-06T06:15:50;0.90;99.90
40996;DHT22;26723;57.478;12.066;2023-04-06T06:19:00;0.90;99.90
40996;DHT22;26723;57.478;12.066;2023-04-06T06:22:10;0.90;99.90
40996;DHT22;26723;57.478;12.066;2023-04-06T06:25:22;0.90;99.90
40996;DHT22;26723;57.478;12.066;2023-04-06T06:28:32;0.90;99.90
40996;DHT22;26723;57.478;12.066;2023-04-06T06:31:41;1.00;99.90
40996;DHT22;26723;57.478;12.066;2023-04-06T06:34:50;1.00;99.90
40996;DHT22;26723;57.478;12.066;2023-04-06T06:37:59;1.00;99.90
40996;DHT22;26723;57.478;12.066;2023-04-06T06:41:07;1.00;99.90
40996;DHT22;26723;57.478;12.066;2023-04-06T06:44:18;1.10;99.90
40996;DHT22;26723;57.478;12.066;2023-04-06T06:47:27;1.10;99.90
40996;DHT22;26723;57.478;12.066;2023-04-06T06:50:36;1.20;99.90
40996;DHT22;26723;57.478;12.066;2023-04-06T06:53:44;1.10;99.90
40996;DHT22;26723;57.478;12.066;2023-04-06T06:56:53;1.20;99.90
40996;DHT22;26723;57.478;12.066;2023-04-06T07:00:04;1.20;99.90
40996;DHT22;26723;57.478;12.066;2023-04-06T07:03:14;1.10;99.90
40996;DHT22;26723;57.478;12.066;2023-04-06T07:06:22;1.10;99.90
40996;DHT22;26723;57.478;12.066;2023-04-06T07:09:31;1.10;99.90
40996;DHT22;26723;57.478;12.066;2023-04-06T07:12:40;1.10;99.90
40996;DHT22;26723;57.478;12.066;2023-04-06T07:15:50;1.20;99.90
40996;DHT22;26723;57.478;12.066;2023-04-06T07:18:58;1.20;99.90
40996;DHT22;26723;57.478;12.066;2023-04-06T07:22:07;1.20;99.90
40996;DHT22;26723;57.478;12.066;2023-04-06T07:25:16;1.20;99.90
40996;DHT22;26723;57.478;12.066;2023-04-06T07:28:24;1.30;99.90
40996;DHT22;26723;57.478;12.066;2023-04-06T07:31:35;1.30;99.90
40996;DHT22;26723;57.478;12.066;2023-04-06T07:34:44;1.30;99.90
40996;DHT22;26723;57.478;12.066;2023-04-06T07:37:54;1.30;99.90
40996;DHT22;26723;57.478;12.066;2023-04-06T07:41:03;1.40;99.90
40996;DHT22;26723;57.478;12.066;2023-04-06T07:44:12;1.40;99.90
40996;DHT22;26723;57.478;12.066;2023-04-06T07:47:23;1.50;99.90
40996;DHT22;26723;57.478;12.066;2023-04-06T07:50:31;1.60;99.90
40996;DHT22;26723;57.478;12.066;2023-04-06T07:53:40;1.70;99.90
40996;DHT22;26723;57.478;12.066;2023-04-06T07:56:48;1.70;99.90
40996;DHT22;26723;57.478;12.066;2023-04-06T07:59:57;1.80;99.90
40996;DHT22;26723;57.478;12.066;2023-04-06T08:03:07;1.90;99.90
40996;DHT22;26723;57.478;12.066;2023-04-06T08:06:15;2.10;99.90
40996;DHT22;26723;57.478;12.066;2023-04-06T08:09:24;2.10;99.90
40996;DHT22;26723;57.478;12.066;2023-04-06T08:12:34;2.30;99.90
40996;DHT22;26723;57.478;12.066;2023-04-06T08:15:42;2.70;99.90
40996;DHT22;26723;57.478;12.066;2023-04-06T08:18:52;3.70;99.90
40996;DHT22;26723;57.478;12.066;2023-04-06T08:22:01;4.00;99.90
40996;DHT22;26723;57.478;12.066;2023-04-06T08:25:09;4.70;99.90
40996;DHT22;26723;57.478;12.066;2023-04-06T08:28:18;5.40;99.90
40996;DHT22;26723;57.478;12.066;2023-04-06T08:31:26;5.60;99.90
40996;DHT22;26723;57.478;12.066;2023-04-06T08:34:36;6.00;99.90
40996;DHT22;26723;57.478;12.066;2023-04-06T08:37:44;7.10;99.90
40996;DHT22;26723;57.478;12.066;2023-04-06T08:40:53;8.10;99.90
40996;DHT22;26723;57.478;12.066;2023-04-06T08:44:02;8.20;99.90
40996;DHT22;26723;57.478;12.066;2023-04-06T08:47:11;7.30;99.90
40996;DHT22;26723;57.478;12.066;2023-04-06T08:50:22;6.40;99.90
40996;DHT22;26723;57.478;12.066;2023-04-06T08:53:32;5.90;99.90
40996;DHT22;26723;57.478;12.066;2023-04-06T08:56:41;5.60;99.90
40996;DHT22;26723;57.478;12.066;2023-04-06T08:59:50;5.60;99.90
40996;DHT22;26723;57.478;12.066;2023-04-06T09:02:59;5.30;99.90
40996;DHT22;26723;57.478;12.066;2023-04-06T09:06:10;5.20;99.90
40996;DHT22;26723;57.478;12.066;2023-04-06T09:09:19;5.20;99.90
40996;DHT22;26723;57.478;12.066;2023-04-06T09:12:31;5.30;99.90
40996;DHT22;26723;57.478;12.066;2023-04-06T09:15:40;5.40;99.90
40996;DHT22;26723;57.478;12.066;2023-04-06T09:18:49;5.60;99.90
40996;DHT22;26723;57.478;12.066;2023-04-06T09:22:05;5.70;99.90
40996;DHT22;26723;57.478;12.066;2023-04-06T09:25:19;5.70;99.90
40996;DHT22;26723;57.478;12.066;2023-04-06T09:28:28;5.80;99.90
40996;DHT22;26723;57.478;12.066;2023-04-06T09:31:36;6.00;99.90
40996;DHT22;26723;57.478;12.066;2023-04-06T09:34:45;6.00;99.90
40996;DHT22;26723;57.478;12.066;2023-04-06T09:37:58;5.90;99.90
40996;DHT22;26723;57.478;12.066;2023-04-06T09:41:06;6.30;99.90
40996;DHT22;26723;57.478;12.066;2023-04-06T09:44:15;6.70;99.90
40996;DHT22;26723;57.478;12.066;2023-04-06T09:47:24;6.70;99.90
40996;DHT22;26723;57.478;12.066;2023-04-06T09:50:35;6.70;99.90
40996;DHT22;26723;57.478;12.066;2023-04-06T09:53:49;7.00;99.90
40996;DHT22;26723;57.478;12.066;2023-04-06T09:57:06;7.20;99.90
40996;DHT22;26723;57.478;12.066;2023-04-06T10:00:22;6.90;99.90
40996;DHT22;26723;57.478;12.066;2023-04-06T10:03:34;6.70;99.90
40996;DHT22;26723;57.478;12.066;2023-04-06T10:06:46;7.10;99.90
40996;DHT22;26723;57.478;12.066;2023-04-06T10:10:02;7.10;99.90
40996;DHT22;26723;57.478;12.066;2023-04-06T10:13:11;7.00;99.90
40996;DHT22;26723;57.478;12.066;2023-04-06T10:16:20;7.30;99.90
40996;DHT22;26723;57.478;12.066;2023-04-06T10:19:35;7.50;99.90
40996;DHT22;26723;57.478;12.066;2023-04-06T10:22:55;7.70;99.90
40996;DHT22;26723;57.478;12.066;2023-04-06T10:26:05;7.70;99.90
40996;DHT22;26723;57.478;12.066;2023-04-06T10:29:21;7.70;99.90
40996;DHT22;26723;57.478;12.066;2023-04-06T10:32:36;8.00;99.90
40996;DHT22;26723;57.478;12.066;2023-04-06T10:35:46;8.70;99.90
40996;DHT22;26723;57.478;12.066;2023-04-06T10:38:56;9.10;99.90
40996;DHT22;26723;57.478;12.066;2023-04-06T10:42:08;8.90;99.90
40996;DHT22;26723;57.478;12.066;2023-04-06T10:45:22;8.80;99.90
40996;DHT22;26723;57.478;12.066;2023-04-06T10:48:39;9.20;99.90
40996;DHT22;26723;57.478;12.066;2023-04-06T10:51:52;9.20;99.90
40996;DHT22;26723;57.478;12.066;2023-04-06T10:55:01;9.40;99.90
40996;DHT22;26723;57.478;12.066;2023-04-06T10:58:11;9.40;99.90
40996;DHT22;26723;57.478;12.066;2023-04-06T11:01:22;9.50;99.90
40996;DHT22;26723;57.478;12.066;2023-04-06T11:04:32;8.90;99.90
40996;DHT22;26723;57.478;12.066;2023-04-06T11:07:41;8.80;99.90
40996;DHT22;26723;57.478;12.066;2023-04-06T11:10:49;8.60;99.90
40996;DHT22;26723;57.478;12.066;2023-04-06T11:14:00;9.10;99.90
40996;DHT22;26723;57.478;12.066;2023-04-06T11:17:08;9.40;99.90
40996;DHT22;26723;57.478;12.066;2023-04-06T11:20:17;9.60;99.90
40996;DHT22;26723;57.478;12.066;2023-04-06T11:23:26;9.70;99.90
40996;DHT22;26723;57.478;12.066;2023-04-06T11:26:39;9.70;99.90
40996;DHT22;26723;57.478;12.066;2023-04-06T11:29:49;9.50;99.90
40996;DHT22;26723;57.478;12.066;2023-04-06T11:33:01;9.20;99.90
40996;DHT22;26723;57.478;12.066;2023-04-06T11:36:10;9.40;99.90
40996;DHT22;26723;57.478;12.066;2023-04-06T11:39:23;9.30;99.90
40996;DHT22;26723;57.478;12.066;2023-04-06T11:42:34;9.10;99.90
40996;DHT22;26723;57.478;12.066;2023-04-06T11:45:44;8.70;99.90
40996;DHT22;26723;57.478;12.066;2023-04-06T11:48:58;8.70;99.90
40996;DHT22;26723;57.478;12.066;2023-04-06T11:52:15;8.70;99.90
40996;DHT22;26723;57.478;12.066;2023-04-06T11:55:23;8.50;99.90
40996;DHT22;26723;57.478;12.066;2023-04-06T11:58:32;8.70;99.90
40996;DHT22;26723;57.478;12.066;2023-04-06T12:01:46;8.40;99.90
40996;DHT22;26723;57.478;12.066;2023-04-06T12:04:54;8.10;99.90
40996;DHT22;26723;57.478;12.066;2023-04-06T12:08:03;8.10;99.90
40996;DHT22;26723;57.478;12.066;2023-04-06T12:11:11;8.00;99.90
40996;DHT22;26723;57.478;12.066;2023-04-06T12:14:20;8.30;99.90
40996;DHT22;26723;57.478;12.066;2023-04-06T12:17:30;8.20;99.90
40996;DHT22;26723;57.478;12.066;2023-04-06T12:20:39;8.30;99.90
40996;DHT22;26723;57.478;12.066;2023-04-06T12:23:47;8.30;99.90
40996;DHT22;26723;57.478;12.066;2023-04-06T12:26:56;8.30;99.90
40996;DHT22;26723;57.478;12.066;2023-04-06T12:30:16;8.20;99.90
40996;DHT22;26723;57.478;12.066;2023-04-06T12:33:26;8.20;99.90
40996;DHT22;26723;57.478;12.066;2023-04-06T12:36:34;8.30;99.90
40996;DHT22;26723;57.478;12.066;2023-04-06T12:39:43;8.40;99.90
40996;DHT22;26723;57.478;12.066;2023-04-06T12:42:52;8.40;99.90
40996;DHT22;26723;57.478;12.066;2023-04-06T12:46:00;8.40;99.90
40996;DHT22;26723;57.478;12.066;2023-04-06T12:49:10;8.50;99.90
40996;DHT22;26723;57.478;12.066;2023-04-06T12:52:19;8.40;99.90
40996;DHT22;26723;57.478;12.066;2023-04-06T12:55:29;8.40;99.90
40996;DHT22;26723;57.478;12.066;2023-04-06T12:58:41;8.50;99.90
40996;DHT22;26723;57.478;12.066;2023-04-06T13:01:49;8.50;99.90
40996;DHT22;26723;57.478;12.066;2023-04-06T13:05:00;8.40;99.90
40996;DHT22;26723;57.478;12.066;2023-04-06T13:08:09;8.30;99.90
40996;DHT22;26723;57.478;12.066;2023-04-06T13:11:17;8.20;99.90
40996;DHT22;26723;57.478;12.066;2023-04-06T13:14:27;8.30;99.90
40996;DHT22;26723;57.478;12.066;2023-04-06T13:17:36;8.20;99.90
40996;DHT22;26723;57.478;12.066;2023-04-06T13:20:46;8.20;99.90
40996;DHT22;26723;57.478;12.066;2023-04-06T13:23:54;8.10;99.90
40996;DHT22;26723;57.478;12.066;2023-04-06T13:27:03;8.20;99.90
40996;DHT22;26723;57.478;12.066;2023-04-06T13:30:12;8.10;99.90
40996;DHT22;26723;57.478;12.066;2023-04-06T13:33:23;8.00;99.90
40996;DHT22;26723;57.478;12.066;2023-04-06T13:36:34;8.00;99.90
40996;DHT22;26723;57.478;12.066;2023-04-06T13:39:43;8.10;99.90
40996;DHT22;26723;57.478;12.066;2023-04-06T13:42:51;8.00;99.90
40996;DHT22;26723;57.478;12.066;2023-04-06T13:45:59;8.20;99.90
40996;DHT22;26723;57.478;12.066;2023-04-06T13:49:08;8.10;99.90
40996;DHT22;26723;57.478;12.066;2023-04-06T13:52:18;8.10;99.90
40996;DHT22;26723;57.478;12.066;2023-04-06T13:55:27;8.10;99.90
40996;DHT22;26723;57.478;12.066;2023-04-06T13:58:36;8.10;99.90
40996;DHT22;26723;57.478;12.066;2023-04-06T14:01:45;8.10;99.90
40996;DHT22;26723;57.478;12.066;2023-04-06T14:04:53;8.20;99.90
40996;DHT22;26723;57.478;12.066;2023-04-06T14:08:03;8.20;99.90
40996;DHT22;26723;57.478;12.066;2023-04-06T14:11:12;8.20;99.90
40996;DHT22;26723;57.478;12.066;2023-04-06T14:14:21;8.30;99.90
40996;DHT22;26723;57.478;12.066;2023-04-06T14:17:30;8.40;99.90
40996;DHT22;26723;57.478;12.066;2023-04-06T14:20:39;8.40;99.90
40996;DHT22;26723;57.478;12.066;2023-04-06T14:23:48;8.50;99.90
40996;DHT22;26723;57.478;12.066;2023-04-06T14:26:57;8.50;99.90
40996;DHT22;26723;57.478;12.066;2023-04-06T14:30:07;8.50;99.90
40996;DHT22;26723;57.478;12.066;2023-04-06T14:33:16;8.60;99.90
40996;DHT22;26723;57.478;12.066;2023-04-06T14:36:24;8.60;99.90
40996;DHT22;26723;57.478;12.066;2023-04-06T14:39:35;8.60;99.90
40996;DHT22;26723;57.478;12.066;2023-04-06T14:42:44;8.50;99.90
40996;DHT22;26723;57.478;12.066;2023-04-06T14:45:53;8.50;99.90
40996;DHT22;26723;57.478;12.066;2023-04-06T14:49:01;8.50;99.90
40996;DHT22;26723;57.478;12.066;2023-04-06T14:52:10;8.60;99.90
40996;DHT22;26723;57.478;12.066;2023-04-06T14:55:20;8.50;99.90
40996;DHT22;26723;57.478;12.066;2023-04-06T14:58:28;8.50;99.90
40996;DHT22;26723;57.478;12.066;2023-04-06T15:01:37;8.40;99.90
40996;DHT22;26723;57.478;12.066;2023-04-06T15:04:46;8.40;99.90
40996;DHT22;26723;57.478;12.066;2023-04-06T15:07:54;8.30;99.90
40996;DHT22;26723;57.478;12.066;2023-04-06T15:11:04;8.30;99.90
40996;DHT22;26723;57.478;12.066;2023-04-06T15:14:12;8.40;99.90
40996;DHT22;26723;57.478;12.066;2023-04-06T15:17:21;8.40;99.90
40996;DHT22;26723;57.478;12.066;2023-04-06T15:20:30;8.40;99.90
40996;DHT22;26723;57.478;12.066;2023-04-06T15:23:38;8.40;99.90
40996;DHT22;26723;57.478;12.066;2023-04-06T15:26:48;8.30;99.90
40996;DHT22;26723;57.478;12.066;2023-04-06T15:29:57;8.30;99.90
40996;DHT22;26723;57.478;12.066;2023-04-06T15:33:07;8.30;99.90
40996;DHT22;26723;57.478;12.066;2023-04-06T15:36:23;8.40;99.90
40996;DHT22;26723;57.478;12.066;2023-04-06T15:39:33;8.30;99.90
40996;DHT22;26723;57.478;12.066;2023-04-06T15:42:44;8.20;99.90
40996;DHT22;26723;57.478;12.066;2023-04-06T15:45:52;8.10;99.90
40996;DHT22;26723;57.478;12.066;2023-04-06T15:49:01;8.00;99.90
40996;DHT22;26723;57.478;12.066;2023-04-06T15:52:09;8.10;99.90
40996;DHT22;26723;57.478;12.066;2023-04-06T15:55:18;8.10;99.90
40996;DHT22;26723;57.478;12.066;2023-04-06T15:58:28;8.00;99.90
40996;DHT22;26723;57.478;12.066;2023-04-06T16:01:36;8.00;99.90
40996;DHT22;26723;57.478;12.066;2023-04-06T16:04:46;8.10;99.90
40996;DHT22;26723;57.478;12.066;2023-04-06T16:07:55;8.10;99.90
40996;DHT22;26723;57.478;12.066;2023-04-06T16:11:03;8.00;99.90
40996;DHT22;26723;57.478;12.066;2023-04-06T16:14:13;7.90;99.90
40996;DHT22;26723;57.478;12.066;2023-04-06T16:17:22;7.80;99.90
40996;DHT22;26723;57.478;12.066;2023-04-06T16:20:30;7.80;99.90
40996;DHT22;26723;57.478;12.066;2023-04-06T16:23:39;7.70;99.90
40996;DHT22;26723;57.478;12.066;2023-04-06T16:26:48;7.70;99.90
40996;DHT22;26723;57.478;12.066;2023-04-06T16:29:58;7.60;99.90
40996;DHT22;26723;57.478;12.066;2023-04-06T16:33:11;7.60;99.90
40996;DHT22;26723;57.478;12.066;2023-04-06T16:36:23;7.50;99.90
40996;DHT22;26723;57.478;12.066;2023-04-06T16:39:33;7.60;99.90
40996;DHT22;26723;57.478;12.066;2023-04-06T16:42:42;7.60;99.90
40996;DHT22;26723;57.478;12.066;2023-04-06T16:45:52;7.50;99.90
40996;DHT22;26723;57.478;12.066;2023-04-06T16:49:02;7.40;99.90
40996;DHT22;26723;57.478;12.066;2023-04-06T16:52:11;7.40;99.90
40996;DHT22;26723;57.478;12.066;2023-04-06T16:55:20;7.50;99.90
40996;DHT22;26723;57.478;12.066;2023-04-06T16:58:28;7.50;99.90
40996;DHT22;26723;57.478;12.066;2023-04-06T17:01:38;7.50;99.90
40996;DHT22;26723;57.478;12.066;2023-04-06T17:04:47;7.60;99.90
40996;DHT22;26723;57.478;12.066;2023-04-06T17:07:55;7.60;99.90
40996;DHT22;26723;57.478;12.066;2023-04-06T17:11:04;7.50;99.90
40996;DHT22;26723;57.478;12.066;2023-04-06T17:14:12;7.50;99.90
40996;DHT22;26723;57.478;12.066;2023-04-06T17:17:22;7.50;99.90
40996;DHT22;26723;57.478;12.066;2023-04-06T17:20:31;7.40;99.90
40996;DHT22;26723;57.478;12.066;2023-04-06T17:23:41;7.40;99.90
40996;DHT22;26723;57.478;12.066;2023-04-06T17:26:49;7.40;99.90
40996;DHT22;26723;57.478;12.066;2023-04-06T17:29:57;7.40;99.90
40996;DHT22;26723;57.478;12.066;2023-04-06T17:33:13;7.30;99.90
40996;DHT22;26723;57.478;12.066;2023-04-06T17:36:23;7.30;99.90
40996;DHT22;26723;57.478;12.066;2023-04-06T17:39:33;7.30;99.90
40996;DHT22;26723;57.478;12.066;2023-04-06T17:42:42;7.10;99.90
40996;DHT22;26723;57.478;12.066;2023-04-06T17:45:51;7.00;99.90
40996;DHT22;26723;57.478;12.066;2023-04-06T17:49:01;7.00;99.90
40996;DHT22;26723;57.478;12.066;2023-04-06T17:52:09;6.90;99.90
40996;DHT22;26723;57.478;12.066;2023-04-06T17:55:18;6.90;99.90
40996;DHT22;26723;57.478;12.066;2023-04-06T17:58:28;6.90;99.90
40996;DHT22;26723;57.478;12.066;2023-04-06T18:01:38;6.80;99.90
40996;DHT22;26723;57.478;12.066;2023-04-06T18:04:51;6.70;99.90
40996;DHT22;26723;57.478;12.066;2023-04-06T18:08:01;6.70;99.90
40996;DHT22;26723;57.478;12.066;2023-04-06T18:11:14;6.60;99.90
40996;DHT22;26723;57.478;12.066;2023-04-06T18:14:24;6.60;99.90
40996;DHT22;26723;57.478;12.066;2023-04-06T18:17:33;6.50;99.90
40996;DHT22;26723;57.478;12.066;2023-04-06T18:20:43;6.50;99.90
40996;DHT22;26723;57.478;12.066;2023-04-06T18:23:52;6.50;99.90
40996;DHT22;26723;57.478;12.066;2023-04-06T18:27:01;6.50;99.90
40996;DHT22;26723;57.478;12.066;2023-04-06T18:30:11;6.50;99.90
40996;DHT22;26723;57.478;12.066;2023-04-06T18:33:23;6.30;99.90
40996;DHT22;26723;57.478;12.066;2023-04-06T18:36:34;6.20;99.90
40996;DHT22;26723;57.478;12.066;2023-04-06T18:39:43;6.10;99.90
40996;DHT22;26723;57.478;12.066;2023-04-06T18:42:51;6.00;99.90
40996;DHT22;26723;57.478;12.066;2023-04-06T18:46:00;6.00;99.90
40996;DHT22;26723;57.478;12.066;2023-04-06T18:49:08;5.90;99.90
40996;DHT22;26723;57.478;12.066;2023-04-06T18:52:18;5.80;99.90
40996;DHT22;26723;57.478;12.066;2023-04-06T18:55:27;5.70;99.90
40996;DHT22;26723;57.478;12.066;2023-04-06T18:58:39;5.60;99.90
40996;DHT22;26723;57.478;12.066;2023-04-06T19:01:48;5.50;99.90
40996;DHT22;26723;57.478;12.066;2023-04-06T19:05:00;5.50;99.90
40996;DHT22;26723;57.478;12.066;2023-04-06T19:08:11;5.30;99.90
40996;DHT22;26723;57.478;12.066;2023-04-06T19:11:19;5.30;99.90
40996;DHT22;26723;57.478;12.066;2023-04-06T19:14:31;5.30;99.90
40996;DHT22;26723;57.478;12.066;2023-04-06T19:17:40;5.10;99.90
40996;DHT22;26723;57.478;12.066;2023-04-06T19:20:50;5.10;99.90
40996;DHT22;26723;57.478;12.066;2023-04-06T19:24:00;5.00;99.90
40996;DHT22;26723;57.478;12.066;2023-04-06T19:27:09;5.00;99.90
40996;DHT22;26723;57.478;12.066;2023-04-06T19:30:18;5.00;99.90
40996;DHT22;26723;57.478;12.066;2023-04-06T19:33:26;4.80;99.90
40996;DHT22;26723;57.478;12.066;2023-04-06T19:36:35;4.70;99.90
40996;DHT22;26723;57.478;12.066;2023-04-06T19:39:45;4.50;99.90
40996;DHT22;26723;57.478;12.066;2023-04-06T19:42:54;4.40;99.90
40996;DHT22;26723;57.478;12.066;2023-04-06T19:46:03;4.40;99.90
40996;DHT22;26723;57.478;12.066;2023-04-06T19:49:12;4.40;99.90
40996;DHT22;26723;57.478;12.066;2023-04-06T19:52:21;4.40;99.90
40996;DHT22;26723;57.478;12.066;2023-04-06T19:55:31;4.30;99.90
40996;DHT22;26723;57.478;12.066;2023-04-06T19:58:39;4.20;99.90
40996;DHT22;26723;57.478;12.066;2023-04-06T20:01:48;4.20;99.90